Time;durP1;ratioP1;P1;durP2;ratioP2;P2;SDS_P1;SDS_P2;PMS_P1;PMS_P2;Temp;Humidity;BMP_temperature;BMP_pressure;BME280_temperature;BME280_humidity;BME280_pressure;Samples;Min_cycle;Max_cycle;Signal;HPM_P1;HPM_P2
2021/01/06 00:05:06;;;;;;;3.92;1.67;;;21.50;45.20;;;;;;5138205;27;20394;-69
2021/01/06 00:07:33;;;;;;;5.38;1.60;;;21.60;35.50;;;;;;5135545;27;20043;-69
2021/01/06 00:09:59;;;;;;;3.33;1.77;;;21.70;35.70;;;;;;5115785;27;20081;-69
2021/01/06 00:12:24;;;;;;;4.43;1.70;;;21.70;35.80;;;;;;5136503;27;20058;-69
2021/01/06 00:14:50;;;;;;;2.70;1.70;;;21.80;35.90;;;;;;5116697;27;22360;-69
2021/01/06 00:17:16;;;;;;;5.00;1.80;;;21.80;35.90;;;;;;5135972;27;20046;-69
2021/01/06 00:19:42;;;;;;;3.75;1.73;;;21.80;35.70;;;;;;5135289;27;20027;-68
2021/01/06 00:22:07;;;;;;;3.17;1.70;;;21.90;35.90;;;;;;5136886;27;22257;-66
2021/01/06 00:24:33;;;;;;;3.97;1.98;;;21.90;36.20;;;;;;5134054;27;20471;-64
2021/01/06 00:26:59;;;;;;;4.60;1.63;;;21.90;35.70;;;;;;5133520;27;20070;-64
2021/01/06 00:29:25;;;;;;;4.90;1.98;;;21.90;35.60;;;;;;5136263;27;20043;-64
2021/01/06 00:31:50;;;;;;;2.45;1.42;;;21.90;35.30;;;;;;5116031;27;20391;-64
2021/01/06 00:34:16;;;;;;;5.22;1.92;;;21.90;35.30;;;;;;5121229;27;20077;-64
2021/01/06 00:36:42;;;;;;;6.20;1.73;;;21.90;35.80;;;;;;5136615;27;22296;-64
2021/01/06 00:39:08;;;;;;;3.58;1.63;;;21.80;35.30;;;;;;5134863;27;20131;-64
2021/01/06 00:41:35;;;;;;;9.13;2.00;;;21.70;34.90;;;;;;5123086;27;20053;-64
2021/01/06 00:44:02;;;;;;;4.25;2.17;;;21.60;34.60;;;;;;5134218;27;20034;-64
2021/01/06 00:46:32;;;;;;;4.18;1.70;;;21.60;34.90;;;;;;5135928;27;20038;-64
2021/01/06 00:49:00;;;;;;;3.25;1.67;;;21.60;35.10;;;;;;5133607;27;20042;-64
2021/01/06 00:51:27;;;;;;;3.25;1.55;;;21.50;35.20;;;;;;5134891;27;20487;-69
2021/01/06 00:53:53;;;;;;;2.42;1.40;;;21.50;35.30;;;;;;5135500;27;20035;-68
2021/01/06 00:56:33;;;;;;;4.05;1.75;;;21.50;35.40;;;;;;5132476;27;20032;-68
2021/01/06 00:58:59;;;;;;;2.97;1.60;;;21.50;35.70;;;;;;5133912;27;20032;-68
2021/01/06 01:01:26;;;;;;;4.25;1.60;;;21.40;35.30;;;;;;5134917;27;20035;-68
2021/01/06 01:03:53;;;;;;;5.07;2.03;;;21.40;35.40;;;;;;5121490;27;20061;-68
2021/01/06 01:06:37;;;;;;;4.05;1.45;;;21.30;35.30;;;;;;5134838;27;20034;-68
2021/01/06 01:09:04;;;;;;;2.88;1.73;;;21.30;35.40;;;;;;5132427;27;20498;-64
2021/01/06 01:11:30;;;;;;;4.00;1.75;;;21.30;35.40;;;;;;5134828;27;20041;-64
2021/01/06 01:13:56;;;;;;;3.13;1.63;;;21.30;35.40;;;;;;5135328;27;20039;-64
2021/01/06 01:16:22;;;;;;;3.78;1.55;;;21.20;35.40;;;;;;5120255;27;20119;-64
2021/01/06 01:18:49;;;;;;;2.50;1.55;;;21.20;35.40;;;;;;5120139;27;20031;-64
2021/01/06 01:21:19;;;;;;;3.35;1.85;;;21.20;35.50;;;;;;5119897;27;20060;-64
2021/01/06 01:23:45;;;;;;;4.07;1.67;;;21.10;35.60;;;;;;5120474;27;20031;-64
2021/01/06 01:26:11;;;;;;;3.33;1.40;;;21.10;35.50;;;;;;5119959;27;20414;-64
2021/01/06 01:28:38;;;;;;;3.13;1.70;;;21.10;35.60;;;;;;5120761;27;20389;-64
2021/01/06 01:31:04;;;;;;;4.10;1.67;;;21.10;35.60;;;;;;5118006;27;20027;-64
2021/01/06 01:33:30;;;;;;;2.67;1.52;;;21.10;35.90;;;;;;5119009;27;20035;-63
2021/01/06 01:35:58;;;;;;;2.67;1.50;;;21.10;35.80;;;;;;5120029;27;20046;-64
2021/01/06 01:38:29;;;;;;;3.80;1.50;;;21.00;35.80;;;;;;5120300;27;20121;-63
2021/01/06 01:41:10;;;;;;;2.58;1.25;;;21.00;35.70;;;;;;5119719;27;20118;-64
2021/01/06 01:43:36;;;;;;;2.45;1.23;;;21.00;35.70;;;;;;5118755;27;20063;-64
2021/01/06 01:46:03;;;;;;;2.20;1.42;;;21.00;35.80;;;;;;5124397;27;20044;-64
2021/01/06 01:48:49;;;;;;;2.83;1.42;;;21.00;35.90;;;;;;5119479;27;20047;-64
2021/01/06 01:51:39;;;;;;;2.22;1.35;;;21.00;36.00;;;;;;5121226;27;20067;-64
2021/01/06 01:54:16;;;;;;;3.35;1.65;;;21.00;36.00;;;;;;5134487;27;20153;-64
2021/01/06 01:57:10;;;;;;;1.73;1.30;;;20.90;36.00;;;;;;5119681;27;20478;-64
2021/01/06 01:59:50;;;;;;;3.75;1.50;;;20.90;36.10;;;;;;5120193;27;20043;-64
2021/01/06 02:02:30;;;;;;;2.95;1.40;;;20.90;36.10;;;;;;5119782;27;20376;-68
2021/01/06 02:05:02;;;;;;;2.28;1.50;;;20.80;36.00;;;;;;5119459;27;20162;-68
2021/01/06 02:07:33;;;;;;;3.17;1.55;;;20.80;36.10;;;;;;5135705;27;20042;-68
2021/01/06 02:10:11;;;;;;;3.05;1.70;;;20.80;36.10;;;;;;5119274;27;20036;-68
2021/01/06 02:12:49;;;;;;;1.70;1.00;;;20.80;36.20;;;;;;5118863;27;20042;-68
2021/01/06 02:15:36;;;;;;;2.63;1.48;;;20.80;36.20;;;;;;5123098;27;20039;-68
2021/01/06 02:18:03;;;;;;;2.75;1.55;;;20.80;36.20;;;;;;5119353;27;20035;-69
2021/01/06 02:20:31;;;;;;;3.08;1.40;;;20.80;36.20;;;;;;5118882;27;20058;-69
2021/01/06 02:22:57;;;;;;;2.92;1.33;;;20.70;36.20;;;;;;5117926;27;20042;-68
2021/01/06 02:25:25;;;;;;;2.53;1.60;;;20.70;36.20;;;;;;5118214;27;20039;-69
2021/01/06 02:27:52;;;;;;;1.80;1.33;;;20.70;36.40;;;;;;5119329;27;20035;-68
2021/01/06 02:30:18;;;;;;;2.83;1.83;;;20.70;36.50;;;;;;5116481;27;20034;-68
2021/01/06 02:32:45;;;;;;;3.00;1.10;;;20.70;36.30;;;;;;5114728;27;20035;-69
2021/01/06 02:35:12;;;;;;;2.42;1.40;;;20.70;36.50;;;;;;5119331;27;20061;-69
2021/01/06 02:37:39;;;;;;;1.70;1.10;;;20.60;36.30;;;;;;5134418;27;20066;-68
2021/01/06 02:40:07;;;;;;;2.90;1.40;;;20.60;36.30;;;;;;5117750;27;20040;-69
2021/01/06 02:42:33;;;;;;;1.55;1.00;;;20.70;36.40;;;;;;5118705;27;20031;-68
2021/01/06 02:44:59;;;;;;;2.67;1.58;;;20.60;36.30;;;;;;5119472;27;20039;-68
2021/01/06 02:47:26;;;;;;;3.75;1.60;;;20.60;36.40;;;;;;5117640;27;20062;-68
2021/01/06 02:49:52;;;;;;;2.35;1.33;;;20.60;36.40;;;;;;5115402;27;20049;-68
2021/01/06 02:52:28;;;;;;;2.05;1.17;;;20.60;36.60;;;;;;5118671;27;22123;-68
2021/01/06 02:54:55;;;;;;;2.78;1.33;;;20.60;36.40;;;;;;5118760;27;20084;-68
2021/01/06 02:57:22;;;;;;;1.70;1.10;;;20.60;36.50;;;;;;5116311;27;20694;-67
2021/01/06 02:59:49;;;;;;;1.58;1.05;;;20.60;36.50;;;;;;5118510;27;20112;-68
2021/01/06 03:02:20;;;;;;;3.22;1.40;;;20.50;36.50;;;;;;5118373;27;20039;-68
2021/01/06 03:05:08;;;;;;;2.15;1.23;;;20.50;36.50;;;;;;5118439;27;20054;-68
2021/01/06 03:07:35;;;;;;;1.83;1.15;;;20.50;36.50;;;;;;5117886;27;20035;-69
2021/01/06 03:10:03;;;;;;;2.38;1.13;;;20.50;36.50;;;;;;5117769;27;20046;-69
2021/01/06 03:12:32;;;;;;;2.30;1.50;;;20.50;36.50;;;;;;5119242;27;20039;-68
2021/01/06 03:14:59;;;;;;;4.00;1.52;;;20.40;36.50;;;;;;5117064;27;20043;-68
2021/01/06 03:17:29;;;;;;;3.00;1.33;;;20.40;36.40;;;;;;5117859;27;20043;-68
2021/01/06 03:20:01;;;;;;;2.67;1.40;;;20.40;36.50;;;;;;5117995;27;20974;-69
2021/01/06 03:22:28;;;;;;;4.18;1.52;;;20.40;36.50;;;;;;5119501;27;20058;-68
2021/01/06 03:25:00;;;;;;;2.30;1.38;;;20.40;36.50;;;;;;5116470;27;20049;-68
2021/01/06 03:27:28;;;;;;;2.28;1.50;;;20.40;36.60;;;;;;5117372;27;20906;-69
2021/01/06 03:29:54;;;;;;;3.17;1.35;;;20.40;36.70;;;;;;5116845;27;20047;-63
2021/01/06 03:32:28;;;;;;;2.40;1.17;;;20.30;36.60;;;;;;5116704;27;20088;-63
2021/01/06 03:35:09;;;;;;;2.83;1.50;;;20.40;36.80;;;;;;5116423;27;20471;-63
2021/01/06 03:37:41;;;;;;;1.90;1.17;;;20.30;36.60;;;;;;5118296;27;20099;-63
2021/01/06 03:40:20;;;;;;;2.77;1.50;;;20.40;36.70;;;;;;5119077;27;20031;-63
2021/01/06 03:42:46;;;;;;;3.05;1.40;;;20.30;36.70;;;;;;5115877;27;20030;-64
2021/01/06 03:45:20;;;;;;;2.35;1.30;;;20.30;36.80;;;;;;5116597;27;20069;-68
2021/01/06 03:47:59;;;;;;;3.22;1.33;;;20.30;36.80;;;;;;5118315;27;20043;-68
2021/01/06 03:50:39;;;;;;;2.67;1.27;;;20.30;36.80;;;;;;5117164;27;20042;-68
2021/01/06 03:53:33;;;;;;;3.38;1.45;;;20.30;36.80;;;;;;5117529;27;20043;-68
2021/01/06 03:56:05;;;;;;;2.00;1.27;;;20.30;36.80;;;;;;5117535;27;20376;-68
2021/01/06 03:58:59;;;;;;;2.35;1.45;;;20.30;36.90;;;;;;5117342;27;20047;-68
2021/01/06 04:01:56;;;;;;;2.53;1.25;;;20.20;36.90;;;;;;5116338;27;20523;-68
2021/01/06 04:04:27;;;;;;;2.67;1.17;;;20.20;36.90;;;;;;5115158;28;20132;-68
2021/01/06 04:06:55;;;;;;;1.88;0.90;;;20.30;37.00;;;;;;5118302;28;20043;-68
2021/01/06 04:09:37;;;;;;;3.00;1.30;;;20.20;37.00;;;;;;5117903;28;20031;-69
2021/01/06 04:12:05;;;;;;;2.15;1.20;;;20.20;37.00;;;;;;5116364;28;20036;-69
2021/01/06 04:14:31;;;;;;;1.83;1.00;;;20.20;37.00;;;;;;5116997;28;20070;-68
2021/01/06 04:17:03;;;;;;;1.70;1.23;;;20.20;37.00;;;;;;5117084;28;20115;-68
2021/01/06 04:19:29;;;;;;;1.95;1.27;;;20.20;37.10;;;;;;5115854;28;20601;-68
2021/01/06 04:21:54;;;;;;;2.42;1.23;;;20.20;37.10;;;;;;5117339;28;20036;-68
2021/01/06 04:24:20;;;;;;;2.10;1.08;;;21.30;47.80;;;;;;5113076;28;20035;-69
2021/01/06 04:26:46;;;;;;;1.95;1.10;;;20.20;48.30;;;;;;5118300;27;20043;-68
2021/01/06 04:29:14;;;;;;;1.70;1.10;;;20.10;37.50;;;;;;5116942;28;20070;-63
2021/01/06 04:31:39;;;;;;;2.85;1.10;;;20.10;37.10;;;;;;5117552;28;20055;-63
2021/01/06 04:34:05;;;;;;;2.00;1.17;;;20.10;37.10;;;;;;5118632;27;20078;-63
2021/01/06 04:36:32;;;;;;;2.22;1.10;;;20.10;37.20;;;;;;5117444;27;20039;-63
2021/01/06 04:39:01;;;;;;;1.52;0.90;;;20.10;37.20;;;;;;5116318;28;20035;-63
2021/01/06 04:41:39;;;;;;;2.33;1.30;;;20.10;37.20;;;;;;5117563;28;20150;-64
2021/01/06 04:44:28;;;;;;;2.63;1.27;;;20.10;37.20;;;;;;5117117;28;20550;-64
2021/01/06 04:47:37;;;;;;;2.22;1.20;;;20.10;37.00;;;;;;5116337;28;20063;-64
2021/01/06 04:50:34;;;;;;;3.83;1.70;;;20.00;36.80;;;;;;5103900;27;20125;-64
2021/01/06 04:53:31;;;;;;;2.13;0.98;;;20.00;36.80;;;;;;5136069;27;20039;-63
2021/01/06 04:56:23;;;;;;;4.40;1.42;;;19.90;36.70;;;;;;5120057;27;21162;-63
2021/01/06 04:58:52;;;;;;;1.75;0.95;;;19.90;36.70;;;;;;5112447;27;20051;-63
2021/01/06 05:02:00;;;;;;;2.50;1.10;;;19.80;36.70;;;;;;5121565;27;20478;-63
2021/01/06 05:04:47;;;;;;;2.10;0.98;;;19.80;36.70;;;;;;5120000;27;20074;-63
2021/01/06 05:07:28;;;;;;;1.30;0.95;;;19.80;36.70;;;;;;5120994;27;20062;-63
2021/01/06 05:10:06;;;;;;;2.20;1.10;;;19.80;36.70;;;;;;5121961;27;20063;-63
2021/01/06 05:12:41;;;;;;;2.50;1.15;;;19.80;36.70;;;;;;5119711;27;20043;-64
2021/01/06 05:15:11;;;;;;;1.55;0.90;;;19.70;36.70;;;;;;5120458;27;20066;-64
2021/01/06 05:17:39;;;;;;;2.55;1.30;;;19.70;36.70;;;;;;5119659;27;20036;-63
2021/01/06 05:20:06;;;;;;;2.58;1.42;;;19.70;36.70;;;;;;5120676;27;20028;-63
2021/01/06 05:22:32;;;;;;;2.63;1.05;;;19.70;36.70;;;;;;5117016;27;20130;-63
2021/01/06 05:24:58;;;;;;;1.75;0.90;;;19.70;36.70;;;;;;5119772;27;20039;-63
2021/01/06 05:27:36;;;;;;;3.90;0.85;;;19.60;36.70;;;;;;5121802;27;20035;-63
2021/01/06 05:30:17;;;;;;;3.50;1.15;;;19.70;36.80;;;;;;5118672;27;20027;-63
2021/01/06 05:32:43;;;;;;;4.00;1.00;;;19.70;36.80;;;;;;5123385;27;20032;-64
2021/01/06 05:35:12;;;;;;;1.90;0.90;;;19.60;36.70;;;;;;5119272;27;20046;-63
2021/01/06 05:37:38;;;;;;;2.15;1.05;;;19.60;36.80;;;;;;5120332;27;20390;-63
2021/01/06 05:40:10;;;;;;;1.95;1.05;;;19.60;36.80;;;;;;5119023;27;20039;-63
2021/01/06 05:42:50;;;;;;;2.17;1.40;;;19.60;36.70;;;;;;5119968;27;20063;-63
2021/01/06 05:45:23;;;;;;;2.15;1.08;;;19.60;36.80;;;;;;5118403;27;20040;-63
2021/01/06 05:48:13;;;;;;;1.63;0.90;;;19.50;36.80;;;;;;5119141;27;20042;-63
2021/01/06 05:50:42;;;;;;;1.63;0.98;;;19.50;36.80;;;;;;5119175;27;20031;-64
2021/01/06 05:53:30;;;;;;;2.22;1.10;;;19.50;36.70;;;;;;5119413;27;20386;-64
2021/01/06 05:55:56;;;;;;;2.50;0.90;;;19.50;36.80;;;;;;5120943;27;20348;-63
2021/01/06 05:58:32;;;;;;;0.98;0.70;;;19.50;36.80;;;;;;5118825;27;20038;-63
2021/01/06 06:01:30;;;;;;;3.65;1.02;;;19.50;36.80;;;;;;5119937;27;20027;-64
2021/01/06 06:04:02;;;;;;;2.40;1.00;;;19.50;36.80;;;;;;5119035;27;20139;-64
2021/01/06 06:06:58;;;;;;;2.92;1.13;;;19.50;36.80;;;;;;5119736;27;20032;-64
2021/01/06 06:09:42;;;;;;;2.60;1.00;;;19.40;36.80;;;;;;5119399;27;20042;-64
2021/01/06 06:12:26;;;;;;;2.45;1.15;;;19.40;36.80;;;;;;5119889;27;20039;-64
2021/01/06 06:15:09;;;;;;;3.00;1.10;;;19.40;36.70;;;;;;5120229;27;20050;-64
2021/01/06 06:18:02;;;;;;;2.35;1.08;;;19.40;36.80;;;;;;5117681;27;20039;-68
2021/01/06 06:20:46;;;;;;;2.35;1.00;;;19.40;36.80;;;;;;5120219;27;20049;-68
2021/01/06 06:23:49;;;;;;;2.72;0.88;;;19.40;36.80;;;;;;5117801;27;20043;-67
2021/01/06 06:26:34;;;;;;;1.77;0.90;;;19.30;36.80;;;;;;5118233;27;20031;-67
2021/01/06 06:29:21;;;;;;;2.10;1.00;;;19.30;36.80;;;;;;5119352;27;20031;-67
2021/01/06 06:31:56;;;;;;;1.33;0.95;;;19.30;36.80;;;;;;5120824;27;20035;-67
2021/01/06 06:34:33;;;;;;;2.53;1.05;;;19.30;36.90;;;;;;5118449;27;20062;-64
2021/01/06 06:37:21;;;;;;;1.83;0.88;;;19.30;37.00;;;;;;5119719;27;20027;-65
2021/01/06 06:40:09;;;;;;;5.22;1.30;;;19.40;37.10;;;;;;5103463;27;20042;-69
2021/01/06 06:42:55;;;;;;;6.95;1.90;;;19.40;37.50;;;;;;5116969;27;20035;-68
2021/01/06 06:45:39;;;;;;;9.02;1.58;;;19.40;38.30;;;;;;5118636;27;20078;-68
2021/01/06 06:48:12;;;;;;;6.00;1.35;;;19.50;37.70;;;;;;5119659;27;20027;-69
2021/01/06 06:51:11;;;;;;;3.13;1.38;;;19.60;37.80;;;;;;5118102;27;20050;-68
2021/01/06 06:53:54;;;;;;;9.27;1.92;;;19.70;37.70;;;;;;5118761;27;20190;-68
2021/01/06 06:56:31;;;;;;;4.10;1.35;;;19.80;37.90;;;;;;5119558;27;20035;-68
2021/01/06 06:59:20;;;;;;;4.38;1.42;;;19.80;37.80;;;;;;5118753;27;20027;-67
2021/01/06 07:01:48;;;;;;;5.30;1.35;;;19.90;37.80;;;;;;5118103;27;20039;-68
2021/01/06 07:04:19;;;;;;;6.05;1.50;;;20.00;37.80;;;;;;5118525;27;20499;-68
2021/01/06 07:06:57;;;;;;;5.13;1.60;;;20.10;37.80;;;;;;5118471;27;20163;-68
2021/01/06 07:09:38;;;;;;;3.17;1.23;;;20.20;37.80;;;;;;5118401;27;20031;-69
2021/01/06 07:12:10;;;;;;;2.90;1.20;;;20.30;37.70;;;;;;5116369;27;20031;-68
2021/01/06 07:14:39;;;;;;;5.25;2.05;;;20.30;37.90;;;;;;5119206;27;20042;-68
2021/01/06 07:17:26;;;;;;;5.68;1.38;;;20.50;38.20;;;;;;5116475;27;20047;-68
2021/01/06 07:20:03;;;;;;;8.45;1.98;;;20.50;38.80;;;;;;5117713;27;20046;-68
2021/01/06 07:22:37;;;;;;;9.88;1.85;;;20.60;40.20;;;;;;5117744;27;20036;-68
2021/01/06 07:25:21;;;;;;;10.07;2.85;;;20.70;40.80;;;;;;5117854;27;20031;-69
2021/01/06 07:27:51;;;;;;;8.70;2.10;;;20.70;42.90;;;;;;5118212;27;20070;-68
2021/01/06 07:30:38;;;;;;;9.55;1.85;;;20.80;43.20;;;;;;5117885;27;20046;-71
2021/01/06 07:33:29;;;;;;;9.77;2.25;;;20.80;43.50;;;;;;5117918;27;20035;-70
2021/01/06 07:36:09;;;;;;;6.82;1.77;;;20.80;43.50;;;;;;5117593;27;20039;-69
2021/01/06 07:38:36;;;;;;;8.43;1.55;;;20.80;43.00;;;;;;5117020;27;20920;-70
2021/01/06 07:41:02;;;;;;;6.78;2.10;;;20.80;43.00;;;;;;5116422;27;20118;-70
2021/01/06 07:43:30;;;;;;;5.88;1.73;;;20.80;42.20;;;;;;5118070;27;20040;-64
2021/01/06 07:45:59;;;;;;;4.90;1.45;;;20.80;42.30;;;;;;5117130;27;20043;-66
2021/01/06 07:48:45;;;;;;;5.28;1.52;;;20.80;42.10;;;;;;5117607;27;20043;-65
2021/01/06 07:51:50;;;;;;;6.88;1.75;;;20.90;42.10;;;;;;5117522;27;20038;-65
2021/01/06 07:54:27;;;;;;;6.07;1.70;;;20.90;42.30;;;;;;5117828;27;20045;-65
2021/01/06 07:57:08;;;;;;;3.80;1.52;;;20.90;41.50;;;;;;5116373;27;20035;-69
2021/01/06 07:59:42;;;;;;;5.32;1.65;;;21.00;41.40;;;;;;5117844;27;20058;-69
2021/01/06 08:02:17;;;;;;;5.43;1.33;;;21.00;41.20;;;;;;5117297;27;20046;-70
2021/01/06 08:04:55;;;;;;;5.55;1.38;;;21.00;41.00;;;;;;5116707;28;20051;-70
2021/01/06 08:07:23;;;;;;;3.55;1.35;;;21.00;40.90;;;;;;5116305;27;20126;-69
2021/01/06 08:09:51;;;;;;;5.05;1.42;;;21.00;40.80;;;;;;5117573;28;20161;-69
2021/01/06 08:12:34;;;;;;;4.82;1.50;;;21.10;40.70;;;;;;5116977;28;20527;-69
2021/01/06 08:15:19;;;;;;;6.95;1.80;;;21.10;40.60;;;;;;5116567;28;20054;-69
2021/01/06 08:18:03;;;;;;;4.13;1.40;;;21.20;40.50;;;;;;5118211;27;20039;-70
2021/01/06 08:20:36;;;;;;;4.38;1.42;;;21.20;40.50;;;;;;5118465;28;20039;-69
2021/01/06 08:23:39;;;;;;;3.60;1.10;;;21.30;40.40;;;;;;5117426;28;20057;-69
2021/01/06 08:26:26;;;;;;;6.32;1.58;;;21.30;40.60;;;;;;5120370;27;20042;-69
2021/01/06 08:29:27;;;;;;;3.42;1.63;;;21.50;42.20;;;;;;5121055;27;20110;-73
2021/01/06 08:32:15;;;;;;;9.15;1.30;;;21.60;41.20;;;;;;5120754;27;20099;-69
2021/01/06 08:34:55;;;;;;;5.50;1.83;;;21.60;41.50;;;;;;5112508;27;20047;-69
2021/01/06 08:37:31;;;;;;;5.75;1.48;;;21.80;41.70;;;;;;5118709;27;20486;-69
2021/01/06 08:39:58;;;;;;;7.05;1.30;;;22.00;41.50;;;;;;5121413;27;20059;-70
2021/01/06 08:42:41;;;;;;;6.28;1.20;;;22.10;41.60;;;;;;5124165;27;20037;-71
2021/01/06 08:45:20;;;;;;;4.30;1.45;;;22.30;42.50;;;;;;5120736;27;20150;-72
2021/01/06 08:47:45;;;;;;;5.45;1.30;;;22.50;41.00;;;;;;5120737;27;20115;-74
2021/01/06 08:50:38;;;;;;;3.75;1.75;;;22.40;40.20;;;;;;5121099;27;20035;-74
2021/01/06 08:53:06;;;;;;;4.15;1.02;;;22.50;40.00;;;;;;5120182;27;20040;-64
2021/01/06 08:55:35;;;;;;;2.17;0.88;;;22.30;39.70;;;;;;5120040;27;20217;-65
2021/01/06 08:58:05;;;;;;;5.75;1.10;;;22.30;39.50;;;;;;5120732;27;20067;-65
2021/01/06 09:00:41;;;;;;;1.95;1.20;;;22.30;39.40;;;;;;5119822;27;20054;-66
2021/01/06 09:03:07;;;;;;;2.45;1.20;;;22.30;39.10;;;;;;5120826;27;20038;-65
2021/01/06 09:05:49;;;;;;;3.25;1.10;;;22.30;39.00;;;;;;5124401;27;20471;-65
2021/01/06 09:08:22;;;;;;;2.65;1.10;;;22.30;39.10;;;;;;5121360;27;20039;-65
2021/01/06 09:11:01;;;;;;;4.40;1.33;;;22.30;38.90;;;;;;5120967;27;20035;-66
2021/01/06 09:13:38;;;;;;;7.15;1.00;;;22.30;38.90;;;;;;5119883;27;20039;-65
2021/01/06 09:16:21;;;;;;;3.50;1.27;;;22.30;38.80;;;;;;5118261;27;20517;-65
2021/01/06 09:19:22;;;;;;;3.78;1.20;;;22.30;38.60;;;;;;5121085;27;20483;-64
2021/01/06 09:21:49;;;;;;;3.25;0.88;;;22.30;38.60;;;;;;5120522;27;20035;-64
2021/01/06 09:24:23;;;;;;;5.97;1.30;;;22.30;38.60;;;;;;5118866;27;20032;-64
2021/01/06 09:27:16;;;;;;;3.03;0.95;;;22.30;38.60;;;;;;5120411;27;20046;-64
2021/01/06 09:29:42;;;;;;;2.60;0.80;;;22.20;38.60;;;;;;5109753;27;20051;-64
2021/01/06 09:32:16;;;;;;;3.35;0.98;;;22.20;38.80;;;;;;5119949;27;20505;-64
2021/01/06 09:34:56;;;;;;;3.95;1.17;;;22.20;38.90;;;;;;5117791;27;20046;-64
2021/01/06 09:37:32;;;;;;;2.75;0.73;;;22.10;39.10;;;;;;5118737;27;20056;-64
2021/01/06 09:40:18;;;;;;;3.83;1.10;;;22.10;39.30;;;;;;5119881;27;20035;-64
2021/01/06 09:42:49;;;;;;;10.68;1.40;;;22.10;39.70;;;;;;5121114;27;20039;-63
2021/01/06 09:45:25;;;;;;;6.22;1.52;;;22.10;41.00;;;;;;5119117;27;20036;-63
2021/01/06 09:47:57;;;;;;;5.07;1.50;;;22.10;41.00;;;;;;5119574;27;20489;-63
2021/01/06 09:50:28;;;;;;;6.82;1.40;;;22.10;43.90;;;;;;5119033;27;20036;-63
2021/01/06 09:52:56;;;;;;;9.60;1.40;;;22.10;43.60;;;;;;5118306;27;20031;-63
2021/01/06 09:55:24;;;;;;;4.63;1.00;;;22.10;43.50;;;;;;5120869;27;20039;-63
2021/01/06 09:58:15;;;;;;;6.18;1.13;;;22.10;42.90;;;;;;5118886;27;20035;-63
2021/01/06 10:00:46;;;;;;;4.30;1.17;;;22.00;42.40;;;;;;5118260;27;20051;-63
2021/01/06 10:03:13;;;;;;;3.38;1.00;;;22.00;42.20;;;;;;5119472;27;20064;-63
2021/01/06 10:06:04;;;;;;;3.55;0.80;;;22.00;42.00;;;;;;5120894;27;20054;-63
2021/01/06 10:08:36;;;;;;;3.55;1.10;;;22.00;41.70;;;;;;5118379;27;20039;-63
2021/01/06 10:11:12;;;;;;;2.53;1.05;;;22.00;41.50;;;;;;5118401;27;21154;-63
2021/01/06 10:13:52;;;;;;;5.97;1.08;;;22.10;41.40;;;;;;5117953;27;20069;-63
2021/01/06 10:16:24;;;;;;;2.78;1.02;;;22.10;41.30;;;;;;5117328;27;20027;-63
2021/01/06 10:19:28;;;;;;;5.22;1.23;;;22.10;41.10;;;;;;5119548;27;20035;-63
2021/01/06 10:22:08;;;;;;;2.55;0.98;;;22.10;41.00;;;;;;5119330;27;20106;-63
2021/01/06 10:24:36;;;;;;;4.82;0.80;;;22.10;40.90;;;;;;5117900;27;20039;-63
2021/01/06 10:27:21;;;;;;;4.10;1.20;;;22.10;40.80;;;;;;5122959;27;20118;-63
2021/01/06 10:29:49;;;;;;;2.65;0.90;;;22.10;40.70;;;;;;5118740;27;20027;-63
2021/01/06 10:32:15;;;;;;;3.65;1.17;;;22.10;40.70;;;;;;5118552;27;20040;-63
2021/01/06 10:34:44;;;;;;;2.25;0.75;;;22.10;40.60;;;;;;5118778;27;20047;-63
2021/01/06 10:37:31;;;;;;;1.98;0.80;;;22.10;40.60;;;;;;5116253;27;20043;-63
2021/01/06 10:40:11;;;;;;;5.80;1.30;;;22.10;40.50;;;;;;5119448;27;20031;-63
2021/01/06 10:42:38;;;;;;;2.53;0.80;;;22.10;40.40;;;;;;5120445;27;20031;-63
2021/01/06 10:45:06;;;;;;;5.25;1.30;;;22.10;40.40;;;;;;5115694;27;20724;-63
2021/01/06 10:47:32;;;;;;;2.35;1.10;;;22.10;40.40;;;;;;5116503;27;20032;-63
2021/01/06 10:50:23;;;;;;;1.40;0.77;;;22.20;40.30;;;;;;5118141;27;20040;-63
2021/01/06 10:53:15;;;;;;;2.72;0.98;;;22.20;40.30;;;;;;5118496;27;20116;-63
2021/01/06 10:55:53;;;;;;;3.07;1.10;;;22.20;40.30;;;;;;5117067;27;20740;-64
2021/01/06 10:58:47;;;;;;;2.70;0.63;;;22.10;40.20;;;;;;5118003;27;20035;-63
2021/01/06 11:01:12;;;;;;;2.60;0.77;;;22.10;40.10;;;;;;5119534;27;20526;-63
2021/01/06 11:03:57;;;;;;;3.03;0.90;;;22.20;40.10;;;;;;5117138;27;20134;-63
2021/01/06 11:06:49;;;;;;;2.50;0.80;;;22.20;40.10;;;;;;5118167;27;20049;-64
2021/01/06 11:14:22;;;;;;;4.05;1.20;;;22.50;46.40;;;;;;5136785;27;20415;-64
2021/01/06 11:20:04;;;;;;;3.83;2.83;;;24.10;46.60;;;;;;5127368;27;20352;-62
2021/01/06 11:22:43;;;;;;;5.72;4.30;;;24.50;42.50;;;;;;5096661;28;20370;-66
2021/01/06 11:29:12;;;;;;;5.63;3.05;;;24.80;39.60;;;;;;5114957;27;20375;-71
2021/01/06 11:31:42;;;;;;;3.60;1.73;;;21.90;32.30;;;;;;5114192;28;20054;-72
2021/01/06 11:34:10;;;;;;;3.88;1.30;;;18.80;34.30;;;;;;5115306;28;20043;-73
2021/01/06 11:36:51;;;;;;;3.40;1.60;;;16.00;36.40;;;;;;5114166;28;20089;-72
2021/01/06 11:39:36;;;;;;;3.90;2.03;;;13.60;39.00;;;;;;5113108;28;20036;-72
2021/01/06 11:42:12;;;;;;;2.15;1.23;;;11.50;41.50;;;;;;5112688;28;20554;-71
2021/01/06 11:44:42;;;;;;;2.53;1.30;;;10.10;44.20;;;;;;5114051;27;20070;-75
2021/01/06 11:47:24;;;;;;;3.05;1.30;;;8.90;46.20;;;;;;5111295;28;20120;-75
2021/01/06 11:49:59;;;;;;;4.78;1.58;;;7.80;48.10;;;;;;5114299;28;20111;-75
2021/01/06 11:52:38;;;;;;;2.33;1.20;;;7.10;50.80;;;;;;5106564;27;20114;-74
2021/01/06 11:55:13;;;;;;;2.15;1.10;;;6.50;54.00;;;;;;5109082;27;20035;-74
2021/01/06 11:58:00;;;;;;;4.43;1.27;;;5.90;58.60;;;;;;5106667;28;20050;-74
2021/01/06 12:01:06;;;;;;;3.83;1.60;;;5.50;60.50;;;;;;5109398;28;20039;-75
2021/01/06 12:04:01;;;;;;;3.25;1.58;;;5.10;63.80;;;;;;5108171;28;20079;-72
2021/01/06 12:06:51;;;;;;;6.38;1.50;;;4.80;65.50;;;;;;5093545;28;20056;-84
2021/01/06 12:09:37;;;;;;;2.67;1.23;;;4.50;68.90;;;;;;5115716;28;20044;-81
2021/01/06 12:12:41;;;;;;;2.63;1.20;;;4.20;70.20;;;;;;5112481;28;20433;-80
2021/01/06 12:15:07;;;;;;;3.23;1.70;;;3.90;71.00;;;;;;5117677;28;20095;-82
2021/01/06 12:17:38;;;;;;;3.45;1.45;;;3.80;69.70;;;;;;5119043;28;20392;-81
2021/01/06 12:20:21;;;;;;;7.13;2.00;;;3.70;70.70;;;;;;5115277;27;20119;-82
2021/01/06 12:23:15;;;;;;;7.57;2.90;;;3.60;72.20;;;;;;5117567;28;20039;-81
2021/01/06 12:25:45;;;;;;;3.85;1.63;;;3.50;77.00;;;;;;5113957;28;20089;-82
2021/01/06 12:28:29;;;;;;;7.68;3.67;;;3.30;75.70;;;;;;5113061;28;20048;-81
2021/01/06 12:31:20;;;;;;;8.65;2.72;;;3.30;75.90;;;;;;5113435;28;20044;-82
2021/01/06 12:34:00;;;;;;;6.20;2.60;;;3.30;75.00;;;;;;5106728;28;20070;-81
2021/01/06 12:36:32;;;;;;;5.93;2.00;;;3.30;74.40;;;;;;5120802;28;20036;-81
2021/01/06 12:39:22;;;;;;;6.97;1.95;;;3.40;73.80;;;;;;5114463;28;20036;-81
2021/01/06 12:41:56;;;;;;;12.63;2.70;;;3.50;73.90;;;;;;5102534;28;20038;-81
2021/01/06 12:44:25;;;;;;;3.67;1.98;;;3.60;73.80;;;;;;5104233;28;20032;-81
2021/01/06 12:47:01;;;;;;;7.25;2.28;;;3.60;74.50;;;;;;5099832;28;20044;-81
2021/01/06 12:49:31;;;;;;;4.90;3.75;;;3.60;73.40;;;;;;5103553;28;20056;-81
2021/01/06 12:52:21;;;;;;;7.13;2.00;;;3.60;74.00;;;;;;5101285;28;20885;-82
2021/01/06 12:54:52;;;;;;;3.78;1.98;;;3.60;74.50;;;;;;5097650;28;20499;-82
2021/01/06 12:57:24;;;;;;;9.35;2.50;;;3.60;74.30;;;;;;5101879;28;20036;-82
2021/01/06 13:00:00;;;;;;;6.93;1.70;;;3.60;74.60;;;;;;5104796;28;20098;-82
2021/01/06 13:02:37;;;;;;;7.70;2.35;;;3.50;76.00;;;;;;5104157;28;20505;-82
2021/01/06 13:05:20;;;;;;;5.97;1.83;;;3.40;76.90;;;;;;5104545;28;20390;-82
2021/01/06 13:07:57;;;;;;;7.32;2.00;;;3.20;78.60;;;;;;5097345;28;20400;-82
2021/01/06 13:10:44;;;;;;;7.90;1.90;;;3.10;79.00;;;;;;5099098;28;20051;-82
2021/01/06 13:13:35;;;;;;;6.55;2.40;;;3.00;79.70;;;;;;5103360;28;20040;-82
2021/01/06 13:16:26;;;;;;;8.13;2.63;;;3.10;78.90;;;;;;5105467;28;20051;-82
2021/01/06 13:18:58;;;;;;;10.02;4.57;;;3.20;77.90;;;;;;5102313;28;20047;-82
2021/01/06 13:21:39;;;;;;;6.45;2.67;;;3.30;77.20;;;;;;5099469;28;20036;-83
2021/01/06 13:24:08;;;;;;;5.00;2.00;;;3.50;77.50;;;;;;5081493;28;20040;-85
2021/01/06 13:26:39;;;;;;;7.65;1.88;;;3.50;76.50;;;;;;5106548;28;20524;-74
2021/01/06 13:29:16;;;;;;;6.47;2.38;;;3.60;76.20;;;;;;5091560;28;20036;-72
2021/01/06 13:31:49;;;;;;;6.30;2.30;;;3.70;76.20;;;;;;5095750;28;20395;-72
2021/01/06 13:34:27;;;;;;;4.07;1.38;;;3.80;76.20;;;;;;5089628;28;20047;-72
2021/01/06 13:37:03;;;;;;;6.63;1.40;;;3.70;75.60;;;;;;5090878;28;20122;-83
2021/01/06 13:39:44;;;;;;;7.05;1.70;;;3.80;75.90;;;;;;5103678;28;20035;-84
2021/01/06 13:42:48;;;;;;;4.65;1.45;;;3.80;76.10;;;;;;5098713;28;20488;-83
2021/01/06 13:45:39;;;;;;;4.60;1.83;;;3.70;76.00;;;;;;5100942;28;20023;-82
2021/01/06 13:48:15;;;;;;;5.78;1.90;;;3.70;76.00;;;;;;5105323;28;20032;-80
2021/01/06 13:50:50;;;;;;;3.45;1.45;;;3.80;76.00;;;;;;5096845;28;20046;-80